createdAt,value
2022-10-26T00:00:04.838Z,59.31
2022-10-26T00:01:04.871Z,59.52
2022-10-26T00:02:04.974Z,59.31
2022-10-26T00:03:04.790Z,59.31
2022-10-26T00:04:04.780Z,59.41
2022-10-26T00:05:04.844Z,59.41
2022-10-26T00:06:04.760Z,59.31
2022-10-26T00:07:04.983Z,59.41
2022-10-26T00:08:04.750Z,59.41
2022-10-26T00:09:04.744Z,59.41
2022-10-26T00:10:04.716Z,59.41
2022-10-26T00:11:04.757Z,59.31
2022-10-26T00:12:04.693Z,59.41
2022-10-26T00:13:04.676Z,59.31
2022-10-26T00:14:04.671Z,59.11
2022-10-26T00:15:04.704Z,59.31
2022-10-26T00:16:04.658Z,59.18
2022-10-26T00:17:04.837Z,59.18
2022-10-26T00:18:04.632Z,59.18
2022-10-26T00:19:05.337Z,59.08
2022-10-26T00:20:04.611Z,59.08
2022-10-26T00:21:04.593Z,59.08
2022-10-26T00:22:04.583Z,59.08
2022-10-26T00:23:04.599Z,58.97
2022-10-26T00:24:04.577Z,58.97
2022-10-26T00:25:04.554Z,58.87
2022-10-26T00:26:04.535Z,58.87
2022-10-26T00:27:04.543Z,58.77
2022-10-26T00:28:04.523Z,58.67
2022-10-26T00:29:04.715Z,58.67
2022-10-26T00:30:04.485Z,58.77
2022-10-26T00:31:04.497Z,58.77
2022-10-26T00:32:04.473Z,58.67
2022-10-26T00:33:04.456Z,58.67
2022-10-26T00:34:04.446Z,58.67
2022-10-26T00:35:11.883Z,58.56
2022-10-26T00:36:05.420Z,58.56
2022-10-26T00:37:04.404Z,58.54
2022-10-26T00:38:04.406Z,58.44
2022-10-26T00:39:04.391Z,58.44
2022-10-26T00:40:04.382Z,58.44
2022-10-26T00:41:04.386Z,58.44
2022-10-26T00:42:04.357Z,58.54
2022-10-26T00:43:04.340Z,58.54
2022-10-26T00:44:04.336Z,58.54
2022-10-26T00:45:04.316Z,58.54
2022-10-26T00:46:04.318Z,58.64
2022-10-26T00:47:04.341Z,58.54
2022-10-26T00:48:04.294Z,58.64
2022-10-26T00:49:04.277Z,58.84
2022-10-26T00:50:04.294Z,58.84
2022-10-26T00:51:04.292Z,58.74
2022-10-26T00:52:04.247Z,58.74
2022-10-26T00:53:04.258Z,58.74
2022-10-26T00:54:04.255Z,58.74
2022-10-26T00:55:04.234Z,58.84
2022-10-26T00:56:04.218Z,58.95
2022-10-26T00:57:04.189Z,58.95
2022-10-26T00:58:04.209Z,58.95
2022-10-26T00:59:04.187Z,59.05
2022-10-26T01:00:04.159Z,59.05
2022-10-26T01:01:04.227Z,59.05
2022-10-26T01:02:04.177Z,59.15
2022-10-26T01:03:04.130Z,59.25
2022-10-26T01:04:04.273Z,59.25
2022-10-26T01:05:04.109Z,59.15
2022-10-26T01:06:04.100Z,59.23
2022-10-26T01:07:04.087Z,59.23
2022-10-26T01:08:04.071Z,59.23
2022-10-26T01:09:04.111Z,59.33
2022-10-26T01:10:04.092Z,59.33
2022-10-26T01:11:04.040Z,59.43
2022-10-26T01:12:04.040Z,59.43
2022-10-26T01:13:04.002Z,59.53
2022-10-26T01:14:04.012Z,59.53
2022-10-26T01:15:04.029Z,59.53
2022-10-26T01:16:03.979Z,59.53
2022-10-26T01:18:03.970Z,59.43
2022-10-26T01:19:03.953Z,59.43
2022-10-26T01:20:03.923Z,59.43
2022-10-26T01:21:03.977Z,59.43
2022-10-26T01:22:03.942Z,59.33
2022-10-26T01:23:03.901Z,59.43
2022-10-26T01:24:03.892Z,59.33
2022-10-26T01:25:03.884Z,59.12
2022-10-26T01:26:03.872Z,59.23
2022-10-26T01:27:03.883Z,59.23
2022-10-26T01:28:03.835Z,59.12
2022-10-26T01:29:03.833Z,59.12
2022-10-26T01:30:03.859Z,59.12
2022-10-26T01:31:03.814Z,59.09
2022-10-26T01:32:03.808Z,59.20
2022-10-26T01:33:03.923Z,59.09
2022-10-26T01:34:03.774Z,59.09
2022-10-26T01:35:03.769Z,59.20
2022-10-26T01:36:03.745Z,59.20
2022-10-26T01:37:03.736Z,59.30
2022-10-26T01:38:03.764Z,59.30
2022-10-26T01:39:03.793Z,59.30
2022-10-26T01:40:03.709Z,59.30
2022-10-26T01:41:03.727Z,59.41
2022-10-26T01:42:03.696Z,59.41
2022-10-26T01:43:03.676Z,59.41
2022-10-26T01:44:03.679Z,59.41
2022-10-26T01:45:03.676Z,59.50
2022-10-26T01:46:03.647Z,59.61
2022-10-26T01:47:03.636Z,59.61
2022-10-26T01:48:03.638Z,59.61
2022-10-26T01:49:03.627Z,59.71
2022-10-26T01:50:03.623Z,59.71
2022-10-26T01:51:03.830Z,59.81
2022-10-26T01:52:03.568Z,59.71
2022-10-26T01:53:03.547Z,59.81
2022-10-26T01:54:03.582Z,59.71
2022-10-26T01:55:03.540Z,59.71
2022-10-26T01:56:03.556Z,59.71
2022-10-26T01:57:03.548Z,59.71
2022-10-26T01:58:03.523Z,59.71
2022-10-26T01:59:03.509Z,59.71
2022-10-26T02:00:03.499Z,59.71
2022-10-26T02:01:03.580Z,59.71
2022-10-26T02:02:03.471Z,59.61
2022-10-26T02:03:03.486Z,59.61
2022-10-26T02:04:03.499Z,59.41
2022-10-26T02:05:03.418Z,59.50
2022-10-26T02:06:03.408Z,59.50
2022-10-26T02:07:03.424Z,59.50
2022-10-26T02:08:03.395Z,59.50
2022-10-26T02:09:03.439Z,59.41
2022-10-26T02:10:03.369Z,59.41
2022-10-26T02:11:03.341Z,59.30
2022-10-26T02:12:03.341Z,59.20
2022-10-26T02:13:03.320Z,59.20
2022-10-26T02:14:03.380Z,59.20
2022-10-26T02:15:03.301Z,59.09
2022-10-26T02:16:03.317Z,59.00
2022-10-26T02:17:03.281Z,59.09
2022-10-26T02:18:03.268Z,59.09
2022-10-26T02:19:03.278Z,59.09
2022-10-26T02:20:03.294Z,59.09
2022-10-26T02:21:03.246Z,59.09
2022-10-26T02:22:03.230Z,59.00
2022-10-26T02:23:03.224Z,59.00
2022-10-26T02:24:03.300Z,59.00
2022-10-26T02:25:03.193Z,59.00
2022-10-26T02:26:03.264Z,58.89
2022-10-26T02:27:03.204Z,58.86
2022-10-26T02:28:03.173Z,58.86
2022-10-26T02:29:03.152Z,58.86
2022-10-26T02:30:03.163Z,58.76
2022-10-26T02:31:03.134Z,58.86
2022-10-26T02:32:03.145Z,58.76
2022-10-26T02:33:03.188Z,58.66
2022-10-26T02:34:03.128Z,58.76
2022-10-26T02:35:03.086Z,58.66
2022-10-26T02:36:03.066Z,58.66
2022-10-26T02:37:03.059Z,58.76
2022-10-26T02:38:03.078Z,58.76
2022-10-26T02:39:03.013Z,58.76
2022-10-26T02:40:03.034Z,58.86
2022-10-26T02:41:02.995Z,58.86
2022-10-26T02:42:02.986Z,58.76
2022-10-26T02:43:02.996Z,58.86
2022-10-26T02:44:02.978Z,58.89
2022-10-26T02:45:02.962Z,58.89
2022-10-26T02:46:02.946Z,58.89
2022-10-26T02:47:02.969Z,58.89
2022-10-26T02:48:02.933Z,58.89
2022-10-26T02:49:02.952Z,58.79
2022-10-26T02:50:02.916Z,58.69
2022-10-26T02:51:02.891Z,58.69
2022-10-26T02:52:02.882Z,58.66
2022-10-26T02:53:02.866Z,58.66
2022-10-26T02:54:02.857Z,58.56
2022-10-26T02:55:02.866Z,58.35
2022-10-26T02:56:02.828Z,58.56
2022-10-26T02:57:02.816Z,58.45
2022-10-26T02:58:02.808Z,58.45
2022-10-26T02:59:02.798Z,58.45
2022-10-26T03:00:02.900Z,58.35
2022-10-26T03:01:02.991Z,58.25
2022-10-26T03:02:02.757Z,58.04
2022-10-26T03:03:02.749Z,58.15
2022-10-26T03:04:02.788Z,58.15
2022-10-26T03:05:02.725Z,58.04
2022-10-26T03:06:02.787Z,58.04
2022-10-26T03:07:02.707Z,58.04
2022-10-26T03:08:02.691Z,57.94
2022-10-26T03:09:02.679Z,57.84
2022-10-26T03:10:02.669Z,57.84
2022-10-26T03:11:02.670Z,57.74
2022-10-26T03:12:02.664Z,57.53
2022-10-26T03:13:02.631Z,57.43
2022-10-26T03:14:02.620Z,57.43
2022-10-26T03:15:02.628Z,57.43
2022-10-26T03:16:02.619Z,57.33
2022-10-26T03:17:02.629Z,57.33
2022-10-26T03:18:02.585Z,57.30
2022-10-26T03:19:02.586Z,57.30
2022-10-26T03:20:02.555Z,57.40
2022-10-26T03:21:02.576Z,57.40
2022-10-26T03:22:02.530Z,57.40
2022-10-26T03:23:02.550Z,57.40
2022-10-26T03:24:02.848Z,57.40
2022-10-26T03:25:02.581Z,57.30
2022-10-26T03:26:02.485Z,57.30
2022-10-26T03:27:02.700Z,57.30
2022-10-26T03:28:02.516Z,57.40
2022-10-26T03:29:02.472Z,57.40
2022-10-26T03:30:02.448Z,57.40
2022-10-26T03:31:02.431Z,57.20
2022-10-26T03:32:02.418Z,57.20
2022-10-26T03:33:02.411Z,57.30
2022-10-26T03:34:02.435Z,57.30
2022-10-26T03:35:02.391Z,57.20
2022-10-26T03:36:02.381Z,57.20
2022-10-26T03:37:02.369Z,57.10
2022-10-26T03:38:02.342Z,57.20
2022-10-26T03:39:02.372Z,57.20
2022-10-26T03:40:02.363Z,57.20
2022-10-26T03:41:02.326Z,57.20
2022-10-26T03:42:02.305Z,57.10
2022-10-26T03:43:02.341Z,57.10
2022-10-26T03:44:02.275Z,57.10
2022-10-26T03:45:02.302Z,56.99
2022-10-26T03:46:02.286Z,56.99
2022-10-26T03:47:02.249Z,56.89
2022-10-26T03:48:02.236Z,56.79
2022-10-26T03:49:02.226Z,56.69
2022-10-26T03:50:02.312Z,56.59
2022-10-26T03:51:02.225Z,56.48
2022-10-26T03:52:02.186Z,56.38
2022-10-26T03:53:02.178Z,56.38
2022-10-26T03:54:02.163Z,56.28
2022-10-26T03:55:02.147Z,56.28
2022-10-26T03:56:02.156Z,56.18
2022-10-26T03:57:02.166Z,56.18
2022-10-26T03:58:02.124Z,55.97
2022-10-26T03:59:02.109Z,55.97
2022-10-26T04:00:02.101Z,55.87
2022-10-26T04:01:02.087Z,55.77
2022-10-26T04:02:02.076Z,55.66
2022-10-26T04:03:02.080Z,55.43
2022-10-26T04:04:02.129Z,55.13
2022-10-26T04:05:02.041Z,55.13
2022-10-26T04:06:02.028Z,55.02
2022-10-26T04:07:02.026Z,55.02
2022-10-26T04:08:02.028Z,55.02
2022-10-26T04:09:02.000Z,54.92
2022-10-26T04:10:01.970Z,54.92
2022-10-26T04:11:03.927Z,54.82
2022-10-26T04:12:01.967Z,54.82
2022-10-26T04:13:01.952Z,54.82
2022-10-26T04:14:01.980Z,54.72
2022-10-26T04:16:01.909Z,54.72
2022-10-26T04:17:01.900Z,54.72
2022-10-26T04:18:01.897Z,54.72
2022-10-26T04:19:01.879Z,54.61
2022-10-26T04:20:01.894Z,54.61
2022-10-26T04:21:01.883Z,54.61
2022-10-26T04:22:01.886Z,54.51
2022-10-26T04:23:01.867Z,54.51
2022-10-26T04:24:01.819Z,54.41
2022-10-26T04:25:01.822Z,54.41
2022-10-26T04:26:01.943Z,54.41
2022-10-26T04:27:01.791Z,54.41
2022-10-26T04:28:01.786Z,54.31
2022-10-26T04:29:01.762Z,54.31
2022-10-26T04:30:01.764Z,54.31
2022-10-26T04:31:01.763Z,54.41
2022-10-26T04:32:01.752Z,54.41
2022-10-26T04:33:01.712Z,54.41
2022-10-26T04:34:01.704Z,54.41
2022-10-26T04:35:01.703Z,54.41
2022-10-26T04:36:01.723Z,54.41
2022-10-26T04:37:01.710Z,54.31
2022-10-26T04:38:01.652Z,54.21
2022-10-26T04:39:01.657Z,54.21
2022-10-26T04:40:01.719Z,54.21
2022-10-26T04:41:01.656Z,54.10
2022-10-26T04:42:01.626Z,54.00
2022-10-26T04:43:01.625Z,54.00
2022-10-26T04:44:01.594Z,54.00
2022-10-26T04:45:01.595Z,53.69
2022-10-26T04:46:01.573Z,53.69
2022-10-26T04:47:01.566Z,53.59
2022-10-26T04:48:01.573Z,53.59
2022-10-26T04:49:01.542Z,53.59
2022-10-26T04:50:01.522Z,53.69
2022-10-26T04:51:01.531Z,53.69
2022-10-26T04:52:01.499Z,53.59
2022-10-26T04:53:01.485Z,53.69
2022-10-26T04:54:01.518Z,53.59
2022-10-26T04:55:01.466Z,53.59
2022-10-26T04:56:01.454Z,53.59
2022-10-26T04:57:01.436Z,53.69
2022-10-26T04:58:02.078Z,53.59
2022-10-26T04:59:01.433Z,53.90
2022-10-26T05:00:01.447Z,53.80
2022-10-26T05:01:01.447Z,53.80
2022-10-26T05:02:01.502Z,53.69
2022-10-26T05:03:01.386Z,53.59
2022-10-26T05:04:01.363Z,53.59
2022-10-26T05:05:01.369Z,53.49
2022-10-26T05:06:01.375Z,53.28
2022-10-26T05:07:01.327Z,53.28
2022-10-26T05:08:01.320Z,53.08
2022-10-26T05:09:01.299Z,53.28
2022-10-26T05:10:01.289Z,53.28
2022-10-26T05:11:01.281Z,53.19
2022-10-26T05:12:01.311Z,53.19
2022-10-26T05:13:01.279Z,53.19
2022-10-26T05:14:01.247Z,53.28
2022-10-26T05:15:03.947Z,53.28
2022-10-26T05:16:02.224Z,53.31
2022-10-26T05:17:01.210Z,53.11
2022-10-26T05:18:01.257Z,53.08
2022-10-26T05:19:01.190Z,53.08
2022-10-26T05:20:01.196Z,52.98
2022-10-26T05:21:01.173Z,52.87
2022-10-26T05:22:01.164Z,52.87
2022-10-26T05:23:01.262Z,52.87
2022-10-26T05:24:01.140Z,52.78
2022-10-26T05:25:01.132Z,52.78
2022-10-26T05:26:01.112Z,52.87
2022-10-26T05:27:01.099Z,53.00
2022-10-26T05:28:01.081Z,52.90
2022-10-26T05:29:01.092Z,52.90
2022-10-26T05:30:01.147Z,52.90
2022-10-26T05:31:01.042Z,52.90
2022-10-26T05:32:01.043Z,52.90
2022-10-26T05:33:01.033Z,52.90
2022-10-26T05:34:01.051Z,52.90
2022-10-26T05:35:01.011Z,52.80
2022-10-26T05:36:00.993Z,52.49
2022-10-26T05:37:00.984Z,52.37
2022-10-26T05:38:00.984Z,52.16
2022-10-26T05:39:00.955Z,52.16
2022-10-26T05:40:00.985Z,52.16
2022-10-26T05:41:00.922Z,52.06
2022-10-26T05:42:00.923Z,52.06
2022-10-26T05:43:00.911Z,51.86
2022-10-26T05:44:00.905Z,51.95
2022-10-26T05:45:00.925Z,51.95
2022-10-26T05:46:00.994Z,51.86
2022-10-26T05:47:00.863Z,51.86
2022-10-26T05:48:02.836Z,51.86
2022-10-26T05:49:00.881Z,51.75
2022-10-26T05:50:00.847Z,51.75
2022-10-26T05:51:00.892Z,51.75
2022-10-26T05:52:00.817Z,51.75
2022-10-26T05:53:00.800Z,51.86
2022-10-26T05:54:00.786Z,51.86
2022-10-26T05:55:00.811Z,51.86
2022-10-26T05:56:00.799Z,51.86
2022-10-26T05:57:00.761Z,51.86
2022-10-26T05:58:00.756Z,51.75
2022-10-26T05:59:00.745Z,51.75
2022-10-26T06:00:00.746Z,51.65
2022-10-26T06:01:00.708Z,51.54
2022-10-26T06:02:00.816Z,51.65
2022-10-26T06:03:00.824Z,51.54
2022-10-26T06:04:00.741Z,51.65
2022-10-26T06:05:00.726Z,51.65
2022-10-26T06:06:02.757Z,51.54
2022-10-26T06:07:00.690Z,51.65
2022-10-26T06:08:00.649Z,51.54
2022-10-26T06:09:00.621Z,51.45
2022-10-26T06:10:00.680Z,51.45
2022-10-26T06:11:00.629Z,51.45
2022-10-26T06:12:00.577Z,51.32
2022-10-26T06:13:00.599Z,51.32
2022-10-26T06:14:00.568Z,51.21
2022-10-26T06:15:00.586Z,51.21
2022-10-26T06:16:00.542Z,51.21
2022-10-26T06:17:00.520Z,51.21
2022-10-26T06:18:00.556Z,51.12
2022-10-26T06:19:02.156Z,51.12
2022-10-26T06:20:00.579Z,51.01
2022-10-26T06:21:00.501Z,50.91
2022-10-26T06:22:00.490Z,50.89
2022-10-26T06:23:00.491Z,50.78
2022-10-26T06:24:00.524Z,50.78
2022-10-26T06:25:00.454Z,50.78
2022-10-26T06:26:00.469Z,50.78
2022-10-26T06:27:00.444Z,50.78
2022-10-26T06:28:00.400Z,50.78
2022-10-26T06:29:00.420Z,50.78
2022-10-26T06:30:00.422Z,50.68
2022-10-26T06:31:00.370Z,50.68
2022-10-26T06:32:00.351Z,50.68
2022-10-26T06:33:05.994Z,50.58
2022-10-26T06:34:01.336Z,50.48
2022-10-26T06:35:03.690Z,50.48
2022-10-26T06:36:01.342Z,50.48
2022-10-26T06:37:00.314Z,50.37
2022-10-26T06:38:00.306Z,50.58
2022-10-26T06:39:00.273Z,50.89
2022-10-26T06:40:00.264Z,50.78
2022-10-26T06:41:00.265Z,50.78
2022-10-26T06:42:00.293Z,50.78
2022-10-26T06:43:00.245Z,51.09
2022-10-26T06:44:00.251Z,50.99
2022-10-26T06:45:00.193Z,51.09
2022-10-26T06:46:00.184Z,50.99
2022-10-26T06:47:00.179Z,50.99
2022-10-26T06:48:00.195Z,50.99
2022-10-26T06:49:00.144Z,51.19
2022-10-26T06:50:00.162Z,51.09
2022-10-26T06:51:00.135Z,51.09
2022-10-26T06:52:00.128Z,51.09
2022-10-26T06:53:00.118Z,51.09
2022-10-26T06:54:00.143Z,50.99
2022-10-26T06:55:00.085Z,50.99
2022-10-26T06:56:00.089Z,51.09
2022-10-26T06:57:00.056Z,51.09
2022-10-26T06:58:00.070Z,51.09
2022-10-26T06:59:03.356Z,51.07
2022-10-26T07:00:01.058Z,50.96
2022-10-26T07:01:00.007Z,50.96
2022-10-26T07:02:02.896Z,50.96
2022-10-26T07:03:01.050Z,50.96
2022-10-26T07:03:59.997Z,50.96
2022-10-26T07:04:59.968Z,50.86
2022-10-26T07:05:59.983Z,50.86
2022-10-26T07:06:59.950Z,50.86
2022-10-26T07:07:59.934Z,50.86
2022-10-26T07:08:59.918Z,50.94
2022-10-26T07:09:59.907Z,50.84
2022-10-26T07:10:59.928Z,50.84
2022-10-26T07:11:59.898Z,50.84
2022-10-26T07:12:59.868Z,50.94
2022-10-26T07:13:59.859Z,51.04
2022-10-26T07:14:59.889Z,51.04
2022-10-26T07:15:59.849Z,51.15
2022-10-26T07:16:59.869Z,51.15
2022-10-26T07:17:59.831Z,51.25
2022-10-26T07:18:59.810Z,51.25
2022-10-26T07:19:59.790Z,51.25
2022-10-26T07:20:59.783Z,51.35
2022-10-26T07:21:59.771Z,51.43
2022-10-26T07:22:59.779Z,51.53
2022-10-26T07:23:59.761Z,51.63
2022-10-26T07:25:02.108Z,51.84
2022-10-26T07:26:00.031Z,51.84
2022-10-26T07:26:59.703Z,51.84
2022-10-26T07:27:59.733Z,52.04
2022-10-26T07:28:59.698Z,51.93
2022-10-26T07:29:59.682Z,52.32
2022-10-26T07:30:59.684Z,52.42
2022-10-26T07:31:59.663Z,52.53
2022-10-26T07:32:59.636Z,52.53
2022-10-26T07:33:59.664Z,52.83
2022-10-26T07:34:59.614Z,52.83
2022-10-26T07:35:59.602Z,53.03
2022-10-26T07:36:59.603Z,53.24
2022-10-26T07:37:59.612Z,53.52
2022-10-26T07:38:59.573Z,53.62
2022-10-26T07:40:04.024Z,53.92
2022-10-26T07:41:00.557Z,54.13
2022-10-26T07:41:59.534Z,54.54
2022-10-26T07:42:59.579Z,54.85
2022-10-26T07:43:59.584Z,55.15
2022-10-26T07:44:59.504Z,55.35
2022-10-26T07:45:59.517Z,55.53
2022-10-26T07:46:59.504Z,56.24
2022-10-26T07:47:59.483Z,56.65
2022-10-26T07:48:59.454Z,56.96
2022-10-26T07:49:59.485Z,57.17
2022-10-26T07:50:59.456Z,57.78
2022-10-26T07:51:59.432Z,58.49
2022-10-26T07:52:59.416Z,58.69
2022-10-26T07:53:59.407Z,59.41
2022-10-26T07:54:59.386Z,60.02
2022-10-26T07:55:59.404Z,60.53
2022-10-26T07:56:59.477Z,61.14
2022-10-26T07:57:59.730Z,61.34
2022-10-26T07:58:59.361Z,61.31
2022-10-26T07:59:59.326Z,61.61
2022-10-26T08:00:59.366Z,62.02
2022-10-26T08:01:59.373Z,62.84
2022-10-26T08:02:59.338Z,63.35
2022-10-26T08:03:59.289Z,63.76
2022-10-26T08:04:59.284Z,64.17
2022-10-26T08:05:59.271Z,64.67
2022-10-26T08:06:59.267Z,65.28
2022-10-26T08:07:59.248Z,65.28
2022-10-26T08:08:59.262Z,65.28
2022-10-26T08:09:59.222Z,65.25
2022-10-26T08:10:59.220Z,65.66
2022-10-26T08:11:59.209Z,65.77
2022-10-26T08:12:59.195Z,66.88
2022-10-26T08:13:59.249Z,67.29
2022-10-26T08:14:59.184Z,67.49
2022-10-26T08:15:59.181Z,67.60
2022-10-26T08:16:59.151Z,67.39
2022-10-26T08:17:59.131Z,67.39
2022-10-26T08:18:59.144Z,68.10
2022-10-26T08:19:59.139Z,68.04
2022-10-26T08:21:05.186Z,67.90
2022-10-26T08:22:00.091Z,68.04
2022-10-26T08:22:59.085Z,68.13
2022-10-26T08:23:59.110Z,68.04
2022-10-26T08:24:59.081Z,67.60
2022-10-26T08:25:59.042Z,67.49
2022-10-26T08:26:59.041Z,67.49
2022-10-26T08:27:59.024Z,67.69
2022-10-26T08:28:59.023Z,67.60
2022-10-26T08:29:59.022Z,68.31
2022-10-26T08:30:59.009Z,68.01
2022-10-26T08:31:58.972Z,67.80
2022-10-26T08:32:58.963Z,67.66
2022-10-26T08:33:58.952Z,67.97
2022-10-26T08:34:58.943Z,68.18
2022-10-26T08:35:58.953Z,68.38
2022-10-26T08:36:58.923Z,68.48
2022-10-26T08:37:58.904Z,68.58
2022-10-26T08:40:00.722Z,68.27
2022-10-26T08:40:58.930Z,68.71
2022-10-26T08:41:58.896Z,68.10
2022-10-26T08:42:58.846Z,67.90
2022-10-26T08:43:58.847Z,67.90
2022-10-26T08:44:58.825Z,67.69
2022-10-26T08:45:58.817Z,68.10
2022-10-26T08:46:58.805Z,68.71
2022-10-26T08:47:58.817Z,68.82
2022-10-26T08:48:58.788Z,68.31
2022-10-26T08:49:58.769Z,67.90
2022-10-26T08:50:58.757Z,68.21
2022-10-26T08:51:58.755Z,67.80
2022-10-26T08:52:58.771Z,67.19
2022-10-26T08:53:58.727Z,66.78
2022-10-26T08:54:58.721Z,66.27
2022-10-26T08:55:58.705Z,66.35
2022-10-26T08:56:58.698Z,66.24
2022-10-26T08:57:58.688Z,66.24
2022-10-26T08:58:58.711Z,66.44
2022-10-26T08:59:58.686Z,66.31
2022-10-26T09:00:58.696Z,67.77
2022-10-26T09:01:58.664Z,67.83
2022-10-26T09:02:58.619Z,68.65
2022-10-26T09:03:58.635Z,69.36
2022-10-26T09:04:58.633Z,70.10
2022-10-26T09:05:58.593Z,70.21
2022-10-26T09:06:58.579Z,70.01
2022-10-26T09:07:58.559Z,70.01
2022-10-26T09:08:58.560Z,69.60
2022-10-26T09:09:58.571Z,69.80
2022-10-26T09:10:58.582Z,69.40
2022-10-26T09:11:58.522Z,68.79
2022-10-26T09:12:58.512Z,68.79
2022-10-26T09:13:59.893Z,68.48
2022-10-26T09:14:58.502Z,68.04
2022-10-26T09:15:58.501Z,68.04
2022-10-26T09:16:58.471Z,68.24
2022-10-26T09:17:58.463Z,68.14
2022-10-26T09:19:00.319Z,68.85
2022-10-26T09:19:58.442Z,68.75
2022-10-26T09:20:58.526Z,68.85
2022-10-26T09:21:58.412Z,69.43
2022-10-26T09:22:58.406Z,69.77
2022-10-26T09:23:58.399Z,70.18
2022-10-26T09:24:58.375Z,70.38
2022-10-26T09:25:58.374Z,70.86
2022-10-26T09:26:58.404Z,71.06
2022-10-26T09:27:58.357Z,71.16
2022-10-26T09:28:58.337Z,71.06
2022-10-26T09:29:58.322Z,70.75
2022-10-26T09:30:58.324Z,70.96
2022-10-26T09:31:58.375Z,70.96
2022-10-26T09:32:58.308Z,71.23
2022-10-26T09:33:58.284Z,70.92
2022-10-26T09:34:58.277Z,72.25
2022-10-26T09:35:58.288Z,72.85
2022-10-26T09:36:58.958Z,72.62
2022-10-26T09:37:58.257Z,73.63
2022-10-26T09:38:58.219Z,73.83
2022-10-26T09:39:58.215Z,74.95
2022-10-26T09:40:58.196Z,74.62
2022-10-26T09:41:58.206Z,75.22
2022-10-26T09:42:58.227Z,75.43
2022-10-26T09:43:58.208Z,76.14
2022-10-26T09:44:58.147Z,76.00
2022-10-26T09:45:58.185Z,76.40
2022-10-26T09:46:58.131Z,78.06
2022-10-26T09:47:58.123Z,78.23
2022-10-26T09:48:58.164Z,78.03
2022-10-26T09:49:58.088Z,78.13
2022-10-26T09:51:01.972Z,78.33
2022-10-26T09:51:59.112Z,77.59
2022-10-26T09:52:58.067Z,77.99
2022-10-26T09:53:58.039Z,79.11
2022-10-26T09:54:58.070Z,80.90
2022-10-26T09:55:58.132Z,80.29
2022-10-26T09:56:58.011Z,81.40
2022-10-26T09:57:57.989Z,82.11
2022-10-26T09:58:57.979Z,82.82
2022-10-26T09:59:57.982Z,83.03
2022-10-26T10:00:57.991Z,82.56
2022-10-26T10:01:58.058Z,81.54
2022-10-26T10:02:58.033Z,81.34
2022-10-26T10:03:57.932Z,80.39
2022-10-26T10:04:57.914Z,80.59
2022-10-26T10:05:57.923Z,80.45
2022-10-26T10:06:57.922Z,83.33
2022-10-26T10:07:57.902Z,84.64
2022-10-26T10:08:57.864Z,84.44
2022-10-26T10:09:57.862Z,84.85
2022-10-26T10:10:57.852Z,84.91
2022-10-26T10:11:57.864Z,84.30
2022-10-26T10:12:57.847Z,84.56
2022-10-26T10:13:57.813Z,84.27
2022-10-26T10:14:57.810Z,83.51
2022-10-26T10:15:57.896Z,86.51
2022-10-26T10:16:57.776Z,88.53
2022-10-26T10:17:58.029Z,88.64
2022-10-26T10:18:57.905Z,87.22
2022-10-26T10:19:57.754Z,88.43
2022-10-26T10:20:57.726Z,89.14
2022-10-26T10:21:57.754Z,89.75
2022-10-26T10:22:57.716Z,89.00
2022-10-26T10:23:57.726Z,89.10
2022-10-26T10:24:57.715Z,90.72
2022-10-26T10:25:57.674Z,90.52
2022-10-26T10:26:57.670Z,90.21
2022-10-26T10:27:57.668Z,90.62
2022-10-26T10:28:57.636Z,91.12
2022-10-26T10:30:01.346Z,89.40
2022-10-26T10:30:58.608Z,90.62
2022-10-26T10:31:57.615Z,89.10
2022-10-26T10:32:57.598Z,89.70
2022-10-26T10:33:57.587Z,89.81
2022-10-26T10:34:57.624Z,89.66
2022-10-26T10:35:57.560Z,90.98
2022-10-26T10:36:57.566Z,90.98
2022-10-26T10:37:57.549Z,91.28
2022-10-26T10:38:57.528Z,91.78
2022-10-26T10:39:57.527Z,90.67
2022-10-26T10:40:57.644Z,91.49
2022-10-26T10:41:57.497Z,92.19
2022-10-26T10:42:57.478Z,92.09
2022-10-26T10:43:57.471Z,91.69
2022-10-26T10:44:57.454Z,91.69
2022-10-26T10:45:59.550Z,91.28
2022-10-26T10:46:57.457Z,91.18
2022-10-26T10:47:57.441Z,92.14
2022-10-26T10:48:57.421Z,92.05
2022-10-26T10:49:57.400Z,91.44
2022-10-26T10:50:57.401Z,91.85
2022-10-26T10:51:57.397Z,91.74
2022-10-26T10:52:57.399Z,91.54
2022-10-26T10:53:57.364Z,91.34
2022-10-26T10:54:57.341Z,91.85
2022-10-26T10:55:57.364Z,92.05
2022-10-26T10:56:57.320Z,91.85
2022-10-26T10:57:57.342Z,91.58
2022-10-26T10:58:57.302Z,91.54
2022-10-26T10:59:57.293Z,91.64
2022-10-26T11:00:57.274Z,91.24
2022-10-26T11:01:57.430Z,91.85
2022-10-26T11:02:57.269Z,91.24
2022-10-26T11:03:57.264Z,91.24
2022-10-26T11:04:57.236Z,91.69
2022-10-26T11:05:57.216Z,91.08
2022-10-26T11:06:57.228Z,90.78
2022-10-26T11:07:57.193Z,89.56
2022-10-26T11:08:57.196Z,90.78
2022-10-26T11:09:57.189Z,90.78
2022-10-26T11:10:57.175Z,91.14
2022-10-26T11:11:57.146Z,91.34
2022-10-26T11:12:57.137Z,91.24
2022-10-26T11:13:57.135Z,91.54
2022-10-26T11:14:57.147Z,92.05
2022-10-26T11:15:57.097Z,91.85
2022-10-26T11:16:57.088Z,91.94
2022-10-26T11:17:57.088Z,91.50
2022-10-26T11:18:57.196Z,91.50
2022-10-26T11:19:57.067Z,91.19
2022-10-26T11:21:57.058Z,92.57
2022-10-26T11:22:57.045Z,92.52
2022-10-26T11:23:57.009Z,93.33
2022-10-26T11:24:56.998Z,94.19
2022-10-26T11:25:57.030Z,94.75
2022-10-26T11:26:56.992Z,95.15
2022-10-26T11:27:56.960Z,94.45
2022-10-26T11:28:56.960Z,94.40
2022-10-26T11:29:56.942Z,95.72
2022-10-26T11:30:56.968Z,95.61
2022-10-26T11:31:56.944Z,95.41
2022-10-26T11:32:56.904Z,95.46
2022-10-26T11:34:56.894Z,94.90
2022-10-26T11:35:56.883Z,94.44
2022-10-26T11:36:56.866Z,94.28
2022-10-26T11:37:56.922Z,93.37
2022-10-26T11:38:57.618Z,93.57
2022-10-26T11:39:56.839Z,92.86
2022-10-26T11:40:56.824Z,92.66
2022-10-26T11:41:56.814Z,92.71
2022-10-26T11:42:56.804Z,92.10
2022-10-26T11:43:56.834Z,91.94
2022-10-26T11:44:56.775Z,91.30
2022-10-26T11:45:56.815Z,90.99
2022-10-26T11:46:56.745Z,91.39
2022-10-26T11:47:56.758Z,90.69
2022-10-26T11:48:56.726Z,90.89
2022-10-26T11:49:56.767Z,90.89
2022-10-26T11:50:56.707Z,91.50
2022-10-26T11:51:56.691Z,90.85
2022-10-26T11:52:56.706Z,91.80
2022-10-26T11:53:56.666Z,91.50
2022-10-26T11:54:56.660Z,90.95
2022-10-26T11:55:56.684Z,90.95
2022-10-26T11:56:56.629Z,90.95
2022-10-26T11:57:56.616Z,90.75
2022-10-26T11:58:56.677Z,90.95
2022-10-26T11:59:56.620Z,90.95
2022-10-26T12:00:56.593Z,91.05
2022-10-26T12:01:56.598Z,91.66
2022-10-26T12:02:56.565Z,91.86
2022-10-26T12:03:56.549Z,91.25
2022-10-26T12:04:56.573Z,91.35
2022-10-26T12:05:56.529Z,91.15
2022-10-26T12:06:56.771Z,91.05
2022-10-26T12:07:56.511Z,91.15
2022-10-26T12:08:56.509Z,91.05
2022-10-26T12:09:56.517Z,91.21
2022-10-26T12:10:56.551Z,91.51
2022-10-26T12:11:56.478Z,91.51
2022-10-26T12:12:56.498Z,91.55
2022-10-26T12:13:56.440Z,91.46
2022-10-26T12:14:56.421Z,91.01
2022-10-26T12:16:03.679Z,90.70
2022-10-26T12:16:57.415Z,90.91
2022-10-26T12:17:56.402Z,90.50
2022-10-26T12:18:56.918Z,91.01
2022-10-26T12:19:56.382Z,91.41
2022-10-26T12:20:56.402Z,91.91
2022-10-26T12:21:56.348Z,91.77
2022-10-26T12:22:56.352Z,91.77
2022-10-26T12:23:56.324Z,92.47
2022-10-26T12:24:56.335Z,91.87
2022-10-26T12:25:56.293Z,92.27
2022-10-26T12:26:56.428Z,92.07
2022-10-26T12:27:56.356Z,91.53
2022-10-26T12:28:56.337Z,91.93
2022-10-26T12:29:59.664Z,92.94
2022-10-26T12:30:56.246Z,91.73
2022-10-26T12:31:56.299Z,92.83
2022-10-26T12:32:56.331Z,92.94
2022-10-26T12:33:57.029Z,92.74
2022-10-26T12:34:56.195Z,93.24
2022-10-26T12:35:56.316Z,92.49
2022-10-26T12:36:56.212Z,92.79
2022-10-26T12:37:56.163Z,92.49
2022-10-26T12:38:56.219Z,92.49
2022-10-26T12:39:56.227Z,93.19
2022-10-26T12:40:56.182Z,92.99
2022-10-26T12:41:56.178Z,92.45
2022-10-26T12:42:56.201Z,93.66
2022-10-26T12:43:56.121Z,92.90
2022-10-26T12:44:56.142Z,92.95
2022-10-26T12:45:56.088Z,92.55
2022-10-26T12:46:56.068Z,93.60
2022-10-26T12:47:56.079Z,93.30
2022-10-26T12:48:56.104Z,93.30
2022-10-26T12:49:56.045Z,92.90
2022-10-26T12:50:56.030Z,92.99
2022-10-26T12:51:56.092Z,92.59
2022-10-26T12:52:56.072Z,92.49
2022-10-26T12:53:56.061Z,92.79
2022-10-26T12:54:56.012Z,92.69
2022-10-26T12:55:56.041Z,92.99
2022-10-26T12:56:56.000Z,92.69